Airfield :
LOGIN :

Register | Disclaimer

   EN    FR    IT 

 










Legend :    VFR   Marginal VFR   IFR   Intensive IFR   Very Intensive IFR
Visi :
Ceiling :
>= 8 km
>= 3000ft
5 to 8 km
1000 to 3000 ft
1500m to 5 km
500 to 1000 ft
800 to 1500m
200 to 500 ft
< 800m
< 200 ft
Symbols :   Thunderstorms  Fog  Heavy snow  Heavy precipitations  Wind > 20 kt
SIGMETs :     Misc.  Thunderstorms  Icing  Turbulence  Mountain Waves  Volcanic Ashes






- Airport Elevation : 291 ft
- IATA code : ORY


LFPO - Paris-Orly

CURRENT METAR :
  • 080200Z 23016KT 190V250 9999 SCT014 BKN020 10/08 Q1014 TEMPO 4000 -DZ BKN008

EXPIRED METARs :
  • 080130Z 22014KT 9999 SCT009 BKN017 10/09 Q1014 NOSIG
  • 080100Z 21012KT 180V240 9999 -DZRA BKN008 10/09 Q1015 NOSIG
  • 080030Z 19010KT 9999 SCT009 SCT016 BKN033 10/09 Q1015 NOSIG
  • 080000Z 20009KT 180V240 9999 SCT007 SCT013 BKN028 10/09 Q1016 NOSIG
  • 072330Z 21010KT 9999 -DZRA BKN007 10/09 Q1016 NOSIG

TAF AMD TAF LFPO
Valid from the 08 at 02:00 until the 09 at 06:00 UTC


080204Z 0802/0906 22008KT 9999 BKN016
TEMPO 0802/0804 20017G27KT BKN006
BECMG 0804/0806 22015G30KT BKN012
TEMPO 0807/0812 4000 RA BKN008 SCT014TCU
BECMG 0812/0814 25012KT SCT020 SCT040
TEMPO 0818/0906 4000 SHRA SCT025TCU
ATIS : +33 1 49 75 65 80



MET'MAP, your aeronautical weather chart ! - Copyright ORBIFLY December 2007 - Disclaimer

ORBIFLY MET'MAP TEAM :

Programming & Development : Alexandra Zaïnal
Concept & original design : Baudouin d'Aumeries
Assistance for programming : Marc-Olivier Méhu
Technical & hardware support : Manuel Goepfert

Contact : metmap@orbifly.com




SOURCES & CREDITS :

   NOAA